Kezdőlap
METAR-TAF:

METAR-TAF

Repülőterek :

Hartness State Airport

Springfield, Vermont, Amerikai Egyesült Államok

földrajzi szélesség: 43-20-33N, földrajzi hosszúság: 072-31-18W, magasság: 175 m

Jelenlegi meteorológiai megfigyelések

A jelentés 42 perccel ezelõtt készült, 19:54 UTC
Nyugati szél 10 kt széllökések: 18 kt, nyugat-délnyugati és északnyugati között változik
Hőmérséklet 3°C
Páratartalom 44%
Légköri nyomás 1019 hPa
Látótávolság: 16.1 km
Derült ég

METAR: KVSF 221954Z AUTO 28010G18KT 250V310 10SM CLR 03/M08 A3008 RMK AO2 SLP195 T00281083

Idő: 15:36 (20:36 UTC)


TAF: hiányzik

Meteorológiai megfigyelések és előrejelzések több, mint 4000 repülőtéren (METAR és TAF jelentéseket).

A térképen piros és sárga pontok jelzik az elérhető meteorológiai állomásokat.

Mozgassa az egeret a pont fölött, hogy megjelenjen az állomás neve.

Azután kattintson az időjárási megfigyelések és előrejelzések megtekintéséhez.

A térkép megváltoztatása: kattintson a fekete keresztel jelölt zöld gombra ráközelítéshez, a vonallal jelölt zöld gombra távolításhoz, vagy a zöld nyilakra a szomszédos térképek eléréséhez.


METAR-TAF: